Latest Weather Observations for Charleville

IDQ60801

Issued at 4:22 pm EST Saturday 5 December 2020 (issued every 10 minutes, with the page automatically refreshed every 10 minutes)

About weather observations | Map of weather stations | Latest weather observations for QLD | Other Formats
Station Details ID: 044021 Name: CHARLEVILLE AERO Lat: -26.41 Lon: 146.26 Height: 301.6 m
Data from the previous 72 hours. | See also: Recent months at Charleville
Date/Time
EST
Temp
°C
App
Temp
°C
Dew
Point
°C
Rel
Hum
%
Delta-T
°C
Wind Press
QNH
hPa
Press
MSL
hPa
Rain since
9am
mm
Dir  Spd
km/h
Gust
km/h
Spd
kts
Gust
kts
05/04:00pm 39.0 35.3 9.5 17 17.5 WNW 19 30 10 16 1006.0 1004.0 0.0
05/03:30pm 38.7 35.3 9.3 17 17.3 WNW 17 26 9 14 1006.7 1004.7 0.0
05/03:00pm 39.2 35.0 9.7 17 17.5 NW 22 33 12 18 1007.0 1005.0 0.0
05/02:30pm 39.1 34.5 9.6 17 17.5 NNW 24 37 13 20 1007.2 1005.2 0.0
05/02:00pm 39.5 34.7 9.0 16 18.0 NNW 24 35 13 19 1007.6 1005.6 0.0
05/01:30pm 39.3 34.5 8.9 16 17.8 NNW 24 33 13 18 1008.2 1006.2 0.0
05/01:00pm 39.4 35.2 9.8 17 17.6 NW 22 33 12 18 1008.6 1006.6 0.0
05/12:30pm 38.7 34.2 10.1 18 17.0 NNW 24 35 13 19 1009.4 1007.4 0.0
05/12:00pm 38.3 34.5 9.8 18 16.9 NNW 20 35 11 19 1009.9 1007.9 0.0
05/11:30am 37.9 33.6 9.5 18 16.7 NNW 22 37 12 20 1010.3 1008.4 0.0
05/11:00am 37.0 32.4 9.6 19 16.1 NNW 24 39 13 21 1010.7 1008.8 0.0
05/10:30am 36.8 31.6 10.2 20 15.7 NNW 28 37 15 20 1011.2 1009.2 0.0
05/10:00am 35.4 31.0 10.4 22 14.8 NNW 24 33 13 18 1011.8 1009.8 0.0
05/09:30am 33.7 30.2 10.3 24 13.7 NNW 19 30 10 16 1012.1 1010.1 0.0
05/09:00am 31.9 28.3 10.6 27 12.4 NNW 20 28 11 15 1012.5 1010.5 0.0
05/08:30am 31.7 28.6 11.5 29 11.9 N 19 26 10 14 1012.6 1010.6 0.0
05/08:00am 30.7 27.4 11.6 31 11.3 N 20 28 11 15 1012.4 1010.4 0.0
05/07:30am 30.3 28.7 12.7 34 10.5 NNW 13 19 7 10 1012.6 1010.6 0.0
05/07:00am 30.3 27.8 14.0 37 10.0 N 20 28 11 15 1011.8 1009.8 0.0
05/06:30am 29.4 27.8 15.9 44 8.5 N 19 26 10 14 1011.3 1009.3 0.0
05/06:00am 27.6 27.4 16.6 51 6.9 N 13 15 7 8 1010.5 1008.6 0.0
05/05:30am 26.7 27.1 17.2 56 6.0 NNE 11 15 6 8 1010.0 1008.0 0.0
05/05:00am 26.7 27.1 17.2 56 6.0 NNE 11 13 6 7 1009.7 1007.7 0.0
05/04:30am 26.8 27.2 17.3 56 6.0 NNE 11 15 6 8 1009.4 1007.4 0.0
05/04:00am 26.9 27.1 16.8 54 6.4 NE 11 13 6 7 1009.3 1007.3 0.0
05/03:30am 27.2 27.7 16.5 52 6.7 NNE 9 11 5 6 1009.2 1007.2 0.0
05/03:00am 27.7 28.1 16.3 49 7.1 NNE 9 11 5 6 1008.9 1006.9 0.0
05/02:30am 28.1 27.7 16.1 48 7.5 NNE 13 17 7 9 1009.1 1007.1 0.0
05/02:00am 28.2 28.0 15.8 47 7.7 N 11 15 6 8 1009.5 1007.5 0.0
05/01:30am 28.2 28.4 15.8 47 7.7 NE 9 11 5 6 1009.6 1007.6 0.0
05/01:00am 28.4 27.4 15.7 46 7.9 ENE 15 20 8 11 1010.1 1008.1 0.0
05/12:30am 27.9 26.6 15.9 48 7.5 E 17 28 9 15 1010.5 1008.6 0.0
05/12:00am 28.0 24.9 15.6 46 7.7 E 26 41 14 22 1010.7 1008.8 0.0
 
Date/Time
EST
Temp
°C
App
Temp
°C
Dew
Point
°C
Rel
Hum
%
Delta-T
°C
Wind Press
QNH
hPa
Press
MSL
hPa
Rain since
9am
mm
Dir  Spd
km/h
Gust
km/h
Spd
kts
Gust
kts
04/11:30pm 28.1 23.8 15.4 46 7.9 ESE 32 39 17 21 1011.5 1009.5 0.0
04/11:00pm 29.0 25.4 16.2 46 8.0 SE 30 41 16 22 1012.2 1010.2 0.0
04/10:30pm 31.0 27.0 16.2 41 9.4 SSE 32 48 17 26 1012.4 1010.4 0.0
04/10:26pm 31.6 30.0 16.4 40 9.7 SSE 20 48 11 26 1012.2 1010.2 0.0
04/10:25pm 31.9 30.5 16.6 39 9.8 SSE 19 43 10 23 1012.2 1010.2 0.0
04/10:00pm 32.6 33.6 16.4 37 10.3 SSW 6 9 3 5 1011.1 1009.1 0.0
04/09:30pm 33.0 33.7 15.5 35 11.0 NW 6 9 3 5 1010.8 1008.9 0.0
04/09:00pm 33.2 34.9 15.2 33 11.3 CALM 0 0 0 0 1010.8 1008.9 0.0
04/08:30pm 33.9 34.2 14.9 32 11.9 N 7 9 4 5 1010.5 1008.6 0.0
04/08:00pm 34.5 34.4 14.9 31 12.3 N 9 11 5 6 1010.1 1008.1 0.0
04/07:30pm 34.8 34.4 14.1 28 12.9 N 9 11 5 6 1010.1 1008.1 0.0
04/07:00pm 35.4 34.4 13.5 26 13.5 N 11 13 6 7 1009.9 1007.9 0.0
04/06:30pm 36.7 35.9 14.1 26 14.1 NE 11 17 6 9 1009.6 1007.6 0.0
04/06:00pm 37.6 36.8 12.9 23 15.3 NE 9 15 5 8 1009.4 1007.4 0.0
04/05:30pm 37.9 36.1 13.2 23 15.3 ENE 15 20 8 11 1009.2 1007.2 0.0
04/05:00pm 37.7 36.3 12.3 22 15.6 N 11 19 6 10 1009.4 1007.4 0.0
04/04:30pm 37.7 36.7 12.3 22 15.5 N 9 15 5 8 1009.7 1007.7 0.0
04/04:00pm 38.0 37.0 13.3 23 15.4 NW 11 24 6 13 1010.2 1008.2 0.0
04/03:30pm 37.5 37.2 12.8 22 15.2 WNW 6 13 3 7 1010.6 1008.7 0.0
04/03:00pm 37.1 35.3 13.2 24 14.8 NW 15 20 8 11 1011.3 1009.3 0.0
04/02:30pm 37.1 36.0 13.2 24 14.8 SSE 11 15 6 8 1011.5 1009.5 0.0
04/02:00pm 36.3 34.8 11.9 23 14.8 NW 11 15 6 8 1012.1 1010.1 0.0
04/01:30pm 36.1 34.6 13.0 25 14.2 WNW 13 19 7 10 1012.7 1010.7 0.0
04/01:00pm 35.1 33.7 14.4 29 12.9 NNW 15 26 8 14 1013.1 1011.1 0.0
04/12:30pm 35.2 33.4 14.5 29 13.0 NNW 17 26 9 14 1013.7 1011.8 0.0
04/12:00pm 34.1 32.9 14.1 30 12.4 NNW 13 20 7 11 1014.2 1012.3 0.0
04/11:30am 33.6 32.4 14.1 30 12.1 N 13 19 7 10 1015.0 1013.0 0.0
04/11:00am 32.7 30.7 13.8 31 11.6 NE 17 26 9 14 1015.4 1013.4 0.0
04/10:30am 31.8 29.7 13.5 32 11.1 NNE 17 24 9 13 1016.0 1014.0 0.0
04/10:00am 32.0 30.3 13.7 33 11.2 N 15 22 8 12 1016.3 1014.4 0.0
04/09:30am 30.5 28.3 13.3 35 10.4 NNW 17 28 9 15 1016.4 1014.5 0.0
04/09:00am 30.0 28.1 14.1 37 9.7 NNW 17 22 9 12 1016.6 1014.7 7.0
04/08:30am 29.6 26.2 13.8 38 9.6 NNW 24 32 13 17 1016.4 1014.5 7.0
04/08:00am 28.5 26.5 15.4 45 8.1 N 20 28 11 15 1016.5 1014.6 7.0
04/07:30am 27.8 26.8 16.7 50 7.0 NNE 17 22 9 12 1016.2 1014.2 6.8
04/07:00am 27.2 27.6 18.2 58 5.8 NE 13 20 7 11 1015.9 1013.9 6.8
04/06:30am 26.2 27.0 18.1 61 5.2 NE 11 17 6 9 1015.3 1013.3 6.8
04/06:00am 25.2 27.0 18.2 65 4.5 SE 6 7 3 4 1015.2 1013.2 6.8
04/05:30am 25.7 26.8 18.1 63 4.9 NE 9 15 5 8 1014.8 1012.8 6.8
04/05:00am 25.7 27.2 18.1 63 4.9 NE 7 11 4 6 1014.4 1012.5 6.8
04/04:30am 25.7 26.0 17.9 62 5.0 ESE 13 17 7 9 1013.8 1011.9 6.8
04/04:00am 25.5 25.6 18.4 65 4.6 SE 15 19 8 10 1013.4 1011.5 6.8
04/03:30am 25.3 25.6 18.0 64 4.7 ESE 13 17 7 9 1012.8 1010.8 6.8
04/03:00am 26.3 27.2 17.6 58 5.5 N 9 15 5 8 1011.9 1009.9 6.8
04/02:30am 26.1 26.3 17.7 60 5.3 NW 13 19 7 10 1012.2 1010.2 6.8
04/02:00am 25.8 24.7 17.7 61 5.1 NW 20 32 11 17 1012.4 1010.4 6.8
04/01:30am 26.3 25.4 16.8 56 6.0 NW 17 28 9 15 1012.6 1010.6 6.8
04/01:00am 26.9 26.1 17.1 55 6.2 N 17 19 9 10 1012.5 1010.5 6.8
04/12:30am 26.4 23.7 17.5 58 5.6 NNE 28 35 15 19 1013.4 1011.5 6.8
04/12:00am 25.2 24.1 17.7 63 4.8 NNE 20 28 11 15 1014.9 1012.9 6.8
 
Date/Time
EST
Temp
°C
App
Temp
°C
Dew
Point
°C
Rel
Hum
%
Delta-T
°C
Wind Press
QNH
hPa
Press
MSL
hPa
Rain since
9am
mm
Dir  Spd
km/h
Gust
km/h
Spd
kts
Gust
kts
03/11:40pm 25.1 24.8 18.3 66 4.3 NNE 17 24 9 13 1015.9 1013.9 6.6
03/11:30pm 24.7 23.1 18.4 68 4.0 NNE 24 33 13 18 1016.2 1014.2 6.6
03/11:00pm 25.2 23.8 17.9 64 4.6 NNW 22 32 12 17 1016.9 1015.0 6.4
03/10:34pm 26.8 24.0 17.3 56 6.0 ENE 28 48 15 26 1016.7 1014.8 6.2
03/10:30pm 26.5 25.3 18.4 61 5.2 ENE 22 44 12 24 1016.9 1015.0 6.2
03/10:00pm 23.8 25.3 19.7 78 2.7 NE 11 24 6 13 1017.9 1016.0 6.2
03/09:55pm 23.8 23.8 19.7 78 2.7 NE 19 32 10 17 1017.7 1015.8 6.0
03/09:45pm 24.0 23.5 19.9 78 2.7 NNE 22 35 12 19 1017.9 1016.0 6.0
03/09:30pm 23.6 21.9 19.9 80 2.4 NNE 28 39 15 21 1017.1 1015.2 5.6
03/09:00pm 24.3 23.0 21.4 84 1.9 NNE 30 48 16 26 1017.2 1015.3 4.8
03/08:57pm 24.4 23.3 21.1 82 2.2 NNE 28 48 15 26 1017.0 1015.1 4.8
03/08:45pm 24.1 24.0 21.4 85 1.8 ENE 24 32 13 17 1017.0 1015.1 4.6
03/08:33pm 23.9 24.7 21.4 86 1.7 ESE 19 24 10 13 1017.5 1015.6 4.2
03/08:30pm 24.0 24.8 21.3 85 1.8 ESE 19 24 10 13 1017.4 1015.5 4.2
03/08:25pm 24.2 25.3 21.3 84 1.9 E 17 20 9 11 1017.3 1015.4 3.8
03/08:02pm 24.4 25.0 21.3 83 2.1 N 20 30 11 16 1017.4 1015.5 3.0
03/08:00pm 24.4 25.3 21.9 86 1.7 NNE 20 30 11 16 1017.3 1015.4 3.0
03/07:30pm 25.6 24.3 20.7 74 3.3 NE 28 39 15 21 1016.2 1014.3 0.0
03/07:28pm 25.7 24.4 20.7 74 3.3 NE 28 41 15 22 1016.0 1014.0 0.0
03/07:00pm 29.4 26.0 17.6 49 7.6 E 32 39 17 21 1015.1 1013.1 0.0
03/06:59pm 29.5 26.3 17.3 47 7.8 E 30 39 16 21 1015.0 1013.0 0.0
03/06:30pm 31.0 26.6 16.6 42 9.2 ESE 35 48 19 26 1012.9 1010.9 0.0
03/06:29pm 31.0 26.7 17.0 43 9.0 ESE 35 48 19 26 1012.7 1010.7 0.0
03/06:07pm 31.9 26.8 15.8 38 10.2 ESE 37 56 20 30 1012.4 1010.4 0.0
03/06:00pm 32.3 26.8 15.7 36 10.5 ESE 39 54 21 29 1012.0 1010.0 0.0
03/05:38pm 33.8 26.8 14.3 31 12.1 ESE 44 63 24 34 1011.7 1009.7 0.0
03/05:33pm 35.3 30.3 13.5 27 13.5 SE 32 63 17 34 1011.5 1009.5 0.0
03/05:31pm 36.7 32.6 12.8 24 14.7 SSE 26 63 14 34 1011.2 1009.2 0.0
03/05:30pm 37.6 34.1 12.3 22 15.5 S 22 57 12 31 1010.8 1008.9 0.0
03/05:29pm 39.0 36.0 12.7 21 16.3 S 20 48 11 26 1010.7 1008.8 0.0
03/05:00pm 40.1 39.0 12.1 19 17.3 W 9 15 5 8 1010.3 1008.4 0.0
03/04:30pm 40.4 38.7 12.3 19 17.4 W 13 19 7 10 1009.9 1007.9 0.0
03/04:00pm 40.5 38.4 12.4 19 17.4 NNE 15 26 8 14 1010.0 1008.0 0.0
03/03:30pm 41.6 40.7 12.5 18 18.1 NE 9 19 5 10 1010.2 1008.2 0.0
03/03:00pm 41.3 39.0 13.0 19 17.7 WNW 17 28 9 15 1011.1 1009.1 0.0
03/02:30pm 41.0 39.3 13.6 20 17.3 NNW 15 24 8 13 1011.6 1009.6 0.0
03/02:00pm 40.7 39.5 14.1 21 16.9 NNW 13 39 7 21 1012.2 1010.2 0.0
03/01:30pm 40.3 38.7 13.8 21 16.7 N 15 26 8 14 1012.7 1010.7 0.0
03/01:00pm 39.3 39.0 14.3 22 15.8 WNW 9 22 5 12 1013.2 1011.2 0.0
03/12:30pm 38.6 37.3 15.7 26 14.7 N 17 32 9 17 1013.7 1011.8 0.0
03/12:00pm 37.9 36.2 15.7 27 14.2 N 19 33 10 18 1014.0 1012.1 0.0
03/11:30am 37.5 35.5 16.4 28 13.7 N 22 35 12 19 1014.4 1012.5 0.0
03/11:16am 36.6 33.5 15.7 29 13.4 N 26 52 14 28 1014.7 1012.7 0.0
03/11:00am 36.2 33.8 16.4 31 12.8 N 24 32 13 17 1015.0 1013.0 0.0
03/10:30am 35.7 33.3 16.4 31 12.4 NNW 24 44 13 24 1015.1 1013.1 0.0
03/10:00am 35.7 33.1 16.9 32 12.2 N 26 39 14 21 1015.4 1013.4 0.0
03/09:30am 34.3 30.7 16.2 34 11.6 NNE 30 41 16 22 1015.6 1013.6 0.0
03/09:00am 34.7 31.2 16.5 33 11.7 N 30 41 16 22 1015.6 1013.6 0.0
03/08:30am 34.4 30.8 17.2 36 11.1 NNE 32 41 17 22 1015.5 1013.5 0.0
03/08:04am 33.9 30.4 15.4 33 11.7 N 28 46 15 25 1015.2 1013.2 0.0
03/08:00am 33.9 29.8 14.9 32 11.9 N 30 39 16 21 1015.1 1013.1 0.0
03/07:52am 34.2 30.4 14.7 31 12.2 NNE 28 39 15 21 1015.2 1013.2 0.0
03/07:30am 33.4 30.1 6.6 19 14.8 NNE 13 20 7 11 1015.2 1013.2 0.0
03/07:00am 32.1 28.8 4.8 18 14.5 E 11 15 6 8 1015.0 1013.0 0.0
03/06:30am 30.4 26.5 3.4 18 13.9 ESE 13 17 7 9 1014.7 1012.7 0.0
03/06:00am 29.8 26.7 3.7 19 13.4 SSE 9 13 5 7 1014.4 1012.5 0.0
03/05:30am 28.9 25.4 3.7 20 12.9 SSE 11 13 6 7 1014.1 1012.2 0.0
03/05:00am 29.4 26.0 4.1 20 13.1 SE 11 15 6 8 1013.5 1011.6 0.0
03/04:30am 29.8 26.0 3.7 19 13.5 SE 13 19 7 10 1013.3 1011.4 0.0
03/04:00am 30.3 26.2 4.1 19 13.6 SE 15 19 8 10 1012.8 1010.8 0.0
03/03:30am 30.9 26.3 3.8 18 14.1 SE 17 22 9 12 1012.8 1010.8 0.0
03/03:00am 31.4 25.6 4.2 18 14.3 SE 24 33 13 18 1012.6 1010.6 0.0
03/02:30am 32.0 25.0 3.9 17 14.7 SE 30 43 16 23 1012.9 1010.9 0.0
03/02:00am 32.6 26.0 4.4 17 14.9 SE 28 39 15 21 1012.7 1010.7 0.0
03/01:30am 33.3 25.9 4.1 16 15.5 SE 32 44 17 24 1013.0 1011.0 0.0
03/01:00am 34.1 28.0 4.7 16 15.8 SE 26 37 14 20 1013.3 1011.4 0.0
03/12:30am 34.8 28.8 5.3 16 16.0 ESE 26 41 14 22 1013.4 1011.5 0.0
03/12:00am 34.9 31.6 6.2 17 15.8 E 13 19 7 10 1013.5 1011.6 0.0
 
Date/Time
EST
Temp
°C
App
Temp
°C
Dew
Point
°C
Rel
Hum
%
Delta-T
°C
Wind Press
QNH
hPa
Press
MSL
hPa
Rain since
9am
mm
Dir  Spd
km/h
Gust
km/h
Spd
kts
Gust
kts
02/11:30pm 35.5 31.3 5.8 16 16.3 SE 17 22 9 12 1013.1 1011.1 0.0
02/11:00pm 36.0 30.9 6.2 16 16.5 SSE 22 30 12 16 1013.0 1011.0 0.0
02/10:30pm 36.5 32.1 7.5 17 16.5 SSE 20 28 11 15 1012.9 1010.9 0.0
02/10:00pm 36.5 33.1 7.5 17 16.5 SSE 15 19 8 10 1012.7 1010.7 0.0
02/09:30pm 37.2 33.7 7.2 16 17.0 SSE 15 19 8 10 1012.5 1010.5 0.0
02/09:00pm 37.6 34.6 7.5 16 17.2 SSE 13 17 7 9 1012.2 1010.2 0.0
02/08:30pm 38.0 34.6 7.8 16 17.3 SE 15 19 8 10 1011.9 1009.9 0.0
02/08:00pm 38.5 33.5 8.2 16 17.5 SE 24 35 13 19 1011.6 1009.6 0.0
02/07:44pm 38.9 33.0 7.6 15 18.0 SE 28 50 15 27 1011.6 1009.6 0.0
02/07:30pm 39.6 34.0 7.1 14 18.6 SE 26 35 14 19 1011.3 1009.3 0.0
02/07:00pm 40.3 36.3 6.6 13 19.2 SSE 17 24 9 13 1010.9 1009.0 0.0
02/06:30pm 41.3 37.2 6.2 12 20.0 SSE 17 26 9 14 1010.6 1008.7 0.0
02/06:00pm 42.2 37.7 6.9 12 20.4 SSE 20 32 11 17 1010.3 1008.4 0.0
02/05:30pm 43.0 38.9 6.2 11 21.1 SSE 17 30 9 16 1010.0 1008.0 0.0
02/05:00pm 42.4 38.3 4.4 10 21.2 S 15 26 8 14 1009.9 1007.9 0.0
02/04:30pm 44.2 39.6 5.8 10 22.0 S 19 32 10 17 1009.8 1007.8 0.0

Other formats

Comma delimited format used in spreadsheet applications
http://www.bom.gov.au/fwo/IDQ60801/IDQ60801.94510.axf

JavaScript Object Notation format (JSON) in row-major order
http://www.bom.gov.au/fwo/IDQ60801/IDQ60801.94510.json

Data quality

Most of these data are generated automatically and are frequently updated. Quality checks on data are not normally performed. It is possible for incorrect values to appear. Refer to information at About Latest Weather Observations and please check the disclaimer before using these data.